Airfield :
LOGIN :

Register | Disclaimer

   EN    FR    IT 

 










Legend :    VFR   Marginal VFR   IFR   Intensive IFR   Very Intensive IFR
Visi :
Ceiling :
>= 8 km
>= 3000ft
5 to 8 km
1000 to 3000 ft
1500m to 5 km
500 to 1000 ft
800 to 1500m
200 to 500 ft
< 800m
< 200 ft
Symbols :   Thunderstorms  Fog  Heavy snow  Heavy precipitations  Wind > 20 kt
SIGMETs :     Misc.  Thunderstorms  Icing  Turbulence  Mountain Waves  Volcanic Ashes







- Airport Elevation : 181 ft


ESIB - Satenas AB

CURRENT METAR :
  • 260650Z 06007KT 9999 BKN045 18/16 Q1018

EXPIRED METARs :
  • 260620Z 06006KT CAVOK 17/17 Q1018
  • 260550Z 07005KT CAVOK 17/16 Q1018
  • 260520Z 07005KT 9999 -SHRA FEW040CB BKN070 16/16 Q1018
  • 260450Z 07006KT 9999 SCT040 BKN075 16/16 Q1018
  • 260420Z 06005KT 9999 SCT040 BKN073 16/16 Q1019
  • 260350Z AUTO 05006KT 9999 -SHRA SCT044/// BKN078/// 16/16 Q1019

TAF TAF ESIB
Valid from the 26 at 05:00 until the 26 at 14:00 UTC


260450Z 2605/2614 05008KT 9999 BKN040
BECMG 2607/2610 34010G20KT
TEMPO 2605/2614 4000 SHRA BKN030CB
PROB30
TEMPO 2608/2612 BKN006 RMK MIL
No reported NOTAMs for that airfield.



MET'MAP, your aeronautical weather chart ! - Copyright ORBIFLY December 2007 - Disclaimer

ORBIFLY MET'MAP TEAM :

Programming & Development : Alexandra Zaïnal
Concept & Development : Baudouin d'Aumeries
Co-Development & Prog : Marc-Olivier Méhu
Technical & hardware support : Manuel Goepfert

Contact : metmap@orbifly.com




SOURCES & CREDITS :

   NOAA